Observation data for Slaton on 07/11/2018      Previous  Date       Current Mesonet Observations  Soil Data  Daily Summary Page  Observations in Plain Language
KSLS 110505Z 17006KT 24/16 A3014 RMK A01 T02410161  RH  063%=      5-min Rain = 0
KSLS 110510Z 16006KT 24/16 A3014 RMK A01 T02400161  RH  063%=      5-min Rain = 0
KSLS 110515Z 16005KT 24/16 A3014 RMK A01 T02400162  RH  063%=      5-min Rain = 0
KSLS 110520Z 16006KT 24/16 A3015 RMK A01 T02370162  RH  064%=      5-min Rain = 0
KSLS 110525Z 17005KT 24/16 A3015 RMK A01 T02350163  RH  065%=      5-min Rain = 0
KSLS 110530Z 17005KT 23/16 A3015 RMK A01 T02330163  RH  066%=      5-min Rain = 0
KSLS 110535Z 17005KT 23/16 A3015 RMK A01 T02320162  RH  066%=      5-min Rain = 0
KSLS 110540Z 17005KT 23/16 A3014 RMK A01 T02310161  RH  066%=      5-min Rain = 0
KSLS 110545Z 18005KT 23/16 A3014 RMK A01 T02300162  RH  067%=      5-min Rain = 0
KSLS 110550Z 18005KT 23/16 A3014 RMK A01 T02280163  RH  068%=      5-min Rain = 0
KSLS 110555Z 17006KT 23/16 A3014 RMK A01 T02270164  RH  069%=      5-min Rain = 0
KSLS 110600Z 17007KT 23/16 A3014 RMK A01 T02270164  RH  069%=      5-min Rain = 0
KSLS 110605Z 18007KT 23/16 A3014 RMK A01 T02290164  RH  068%=      5-min Rain = 0
KSLS 110610Z 18007KT 23/16 A3015 RMK A01 T02280164  RH  069%=      5-min Rain = 0
KSLS 110615Z 18006KT 23/16 A3014 RMK A01 T02260164  RH  069%=      5-min Rain = 0
KSLS 110620Z 18005KT 22/17 A3015 RMK A01 T02240165  RH  071%=      5-min Rain = 0
KSLS 110625Z 18005KT 22/17 A3015 RMK A01 T02220165  RH  072%=      5-min Rain = 0
KSLS 110630Z 17005KT 22/17 A3014 RMK A01 T02210165  RH  072%=      5-min Rain = 0
KSLS 110635Z 17005KT 22/17 A3015 RMK A01 T02210165  RH  072%=      5-min Rain = 0
KSLS 110640Z 17005KT 22/17 A3015 RMK A01 T02210167  RH  073%=      5-min Rain = 0
KSLS 110645Z 16005KT 22/17 A3015 RMK A01 T02210168  RH  074%=      5-min Rain = 0
KSLS 110650Z 16004KT 22/17 A3015 RMK A01 T02200168  RH  074%=      5-min Rain = 0
KSLS 110655Z 16004KT 22/17 A3015 RMK A01 T02200168  RH  074%=      5-min Rain = 0
KSLS 110700Z 16005KT 22/17 A3014 RMK A01 T02200168  RH  074%=      5-min Rain = 0
KSLS 110705Z 16004KT 22/17 A3014 RMK A01 T02190167  RH  074%=      5-min Rain = 0
KSLS 110710Z 16004KT 22/17 A3014 RMK A01 T02180167  RH  074%=      5-min Rain = 0
KSLS 110715Z 16004KT 22/17 A3014 RMK A01 T02170166  RH  074%=      5-min Rain = 0
KSLS 110720Z 16004KT 22/17 A3015 RMK A01 T02160165  RH  074%=      5-min Rain = 0
KSLS 110725Z 16003KT 22/17 A3015 RMK A01 T02160166  RH  075%=      5-min Rain = 0
KSLS 110730Z 15003KT 22/17 A3015 RMK A01 T02160167  RH  075%=      5-min Rain = 0
KSLS 110735Z 15002KT 22/17 A3015 RMK A01 T02160167  RH  075%=      5-min Rain = 0
KSLS 110740Z 15002KT 22/17 A3015 RMK A01 T02160165  RH  074%=      5-min Rain = 0
KSLS 110745Z 13001KT 22/17 A3014 RMK A01 T02170165  RH  074%=      5-min Rain = 0
KSLS 110750Z 07001KT 22/16 A3014 RMK A01 T02160164  RH  074%=      5-min Rain = 0
KSLS 110755Z 04002KT 22/16 A3014 RMK A01 T02160163  RH  073%=      5-min Rain = 0
KSLS 110800Z 06003KT 22/16 A3014 RMK A01 T02150161  RH  073%=      5-min Rain = 0
KSLS 110805Z 07003KT 22/16 A3014 RMK A01 T02150160  RH  072%=      5-min Rain = 0
KSLS 110810Z 11002KT 22/16 A3014 RMK A01 T02160160  RH  072%=      5-min Rain = 0
KSLS 110815Z 12002KT 22/16 A3014 RMK A01 T02170161  RH  072%=      5-min Rain = 0
KSLS 110820Z 15002KT 22/16 A3014 RMK A01 T02170163  RH  073%=      5-min Rain = 0
KSLS 110825Z 18002KT 22/16 A3014 RMK A01 T02180162  RH  072%=      5-min Rain = 0
KSLS 110830Z 20003KT 22/16 A3014 RMK A01 T02190162  RH  072%=      5-min Rain = 0
KSLS 110835Z 22003KT 22/16 A3014 RMK A01 T02170161  RH  072%=      5-min Rain = 0
KSLS 110840Z 21003KT 22/16 A3014 RMK A01 T02170162  RH  073%=      5-min Rain = 0
KSLS 110845Z 21003KT 22/16 A3014 RMK A01 T02160164  RH  074%=      5-min Rain = 0
KSLS 110850Z 19004KT 22/16 A3014 RMK A01 T02150164  RH  074%=      5-min Rain = 0
KSLS 110855Z 18005KT 21/16 A3014 RMK A01 T02130164  RH  075%=      5-min Rain = 0
KSLS 110900Z 18005KT 21/16 A3014 RMK A01 T02100164  RH  077%=      5-min Rain = 0
KSLS 110905Z 18005KT 21/16 A3014 RMK A01 T02060164  RH  079%=      5-min Rain = 0
KSLS 110910Z 18005KT 20/16 A3014 RMK A01 T02040164  RH  080%=      5-min Rain = 0
KSLS 110915Z 18005KT 20/16 A3014 RMK A01 T02030164  RH  080%=      5-min Rain = 0
KSLS 110920Z 18004KT 20/16 A3014 RMK A01 T02030164  RH  080%=      5-min Rain = 0
KSLS 110925Z 18004KT 20/16 A3014 RMK A01 T02020164  RH  081%=      5-min Rain = 0
KSLS 110930Z 18003KT 20/16 A3014 RMK A01 T02020164  RH  081%=      5-min Rain = 0
KSLS 110935Z 18001KT 20/16 A3014 RMK A01 T02010164  RH  081%=      5-min Rain = 0
KSLS 110940Z 07001KT 20/16 A3014 RMK A01 T02000163  RH  081%=      5-min Rain = 0
KSLS 110945Z 04002KT 20/17 A3014 RMK A01 T02010165  RH  081%=      5-min Rain = 0
KSLS 110950Z 05001KT 20/17 A3014 RMK A01 T02020165  RH  081%=      5-min Rain = 0
KSLS 110955Z 12002KT 20/17 A3013 RMK A01 T02030165  RH  081%=      5-min Rain = 0
KSLS 111000Z 12003KT 20/16 A3013 RMK A01 T02030164  RH  080%=      5-min Rain = 0
KSLS 111005Z 13004KT 20/16 A3014 RMK A01 T02010162  RH  080%=      5-min Rain = 0
KSLS 111010Z 13004KT 20/16 A3014 RMK A01 T01990161  RH  081%=      5-min Rain = 0
KSLS 111015Z 13004KT 20/16 A3014 RMK A01 T01970161  RH  082%=      5-min Rain = 0
KSLS 111020Z 13005KT 20/16 A3014 RMK A01 T01970163  RH  083%=      5-min Rain = 0
KSLS 111025Z 13005KT 20/17 A3014 RMK A01 T01970165  RH  084%=      5-min Rain = 0
KSLS 111030Z 14005KT 20/17 A3014 RMK A01 T01970166  RH  084%=      5-min Rain = 0
KSLS 111035Z 14005KT 20/17 A3014 RMK A01 T01980167  RH  084%=      5-min Rain = 0
KSLS 111040Z 14005KT 20/17 A3014 RMK A01 T01970167  RH  084%=      5-min Rain = 0
KSLS 111045Z 14005KT 20/17 A3014 RMK A01 T01970167  RH  085%=      5-min Rain = 0
KSLS 111050Z 15005KT 20/17 A3014 RMK A01 T01980168  RH  085%=      5-min Rain = 0
KSLS 111055Z 15005KT 20/17 A3014 RMK A01 T01970167  RH  085%=      5-min Rain = 0
KSLS 111100Z 16006KT 20/17 A3014 RMK A01 T01960167  RH  085%=      5-min Rain = 0
KSLS 111105Z 17006KT 20/17 A3014 RMK A01 T01960167  RH  085%=      5-min Rain = 0
KSLS 111110Z 17006KT 20/17 A3014 RMK A01 T01960167  RH  086%=      5-min Rain = 0
KSLS 111115Z 18007KT 20/17 A3013 RMK A01 T01950167  RH  086%=      5-min Rain = 0
KSLS 111120Z 18006KT 20/17 A3014 RMK A01 T01950168  RH  086%=      5-min Rain = 0
KSLS 111125Z 18006KT 19/17 A3014 RMK A01 T01940167  RH  086%=      5-min Rain = 0
KSLS 111130Z 17006KT 19/17 A3014 RMK A01 T01940166  RH  086%=      5-min Rain = 0
KSLS 111135Z 17006KT 19/17 A3014 RMK A01 T01930165  RH  086%=      5-min Rain = 0
KSLS 111140Z 17005KT 19/17 A3014 RMK A01 T01920165  RH  086%=      5-min Rain = 0
KSLS 111145Z 17005KT 19/17 A3014 RMK A01 T01920165  RH  086%=      5-min Rain = 0
KSLS 111150Z 17005KT 19/17 A3014 RMK A01 T01910165  RH  087%=      5-min Rain = 0
KSLS 111155Z 17005KT 19/17 A3014 RMK A01 T01910165  RH  087%=      5-min Rain = 0
KSLS 111200Z 17006KT 19/17 A3014 RMK A01 T01910165  RH  087%=      5-min Rain = 0
KSLS 111205Z 17006KT 19/17 A3015 RMK A01 T01920166  RH  087%=      5-min Rain = 0
KSLS 111210Z 18006KT 19/17 A3015 RMK A01 T01920167  RH  087%=      5-min Rain = 0
KSLS 111215Z 18007KT 19/17 A3015 RMK A01 T01930168  RH  087%=      5-min Rain = 0
KSLS 111220Z 19007KT 20/17 A3015 RMK A01 T01950168  RH  087%=      5-min Rain = 0
KSLS 111225Z 19006KT 20/17 A3015 RMK A01 T01980169  RH  085%=      5-min Rain = 0
KSLS 111230Z 20007KT 20/17 A3015 RMK A01 T02020169  RH  084%=      5-min Rain = 0
KSLS 111235Z 20008KT 21/17 A3015 RMK A01 T02050168  RH  081%=      5-min Rain = 0
KSLS 111240Z 20008KT 21/17 A3015 RMK A01 T02090166  RH  078%=      5-min Rain = 0
KSLS 111245Z 20008KT 21/17 A3014 RMK A01 T02120166  RH  077%=      5-min Rain = 0
KSLS 111250Z 20009KT 22/17 A3014 RMK A01 T02150165  RH  075%=      5-min Rain = 0
KSLS 111255Z 20009KT 22/16 A3015 RMK A01 T02200163  RH  072%=      5-min Rain = 0
KSLS 111300Z 20010KT 22/16 A3015 RMK A01 T02240163  RH  070%=      5-min Rain = 0
KSLS 111305Z 20010KT 23/16 A3015 RMK A01 T02280163  RH  069%=      5-min Rain = 0
KSLS 111310Z 20011KT 23/16 A3015 RMK A01 T02310163  RH  067%=      5-min Rain = 0
KSLS 111315Z 20011KT 23/16 A3015 RMK A01 T02330163  RH  066%=      5-min Rain = 0
KSLS 111320Z 20011KT 24/16 A3015 RMK A01 T02360163  RH  065%=      5-min Rain = 0
KSLS 111325Z 19013KT 24/16 A3015 RMK A01 T02380163  RH  064%=      5-min Rain = 0
KSLS 111330Z 19012KT 24/17 A3015 RMK A01 T02390165  RH  065%=      5-min Rain = 0
KSLS 111335Z 19013KT 24/17 A3015 RMK A01 T02410165  RH  064%=      5-min Rain = 0
KSLS 111340Z 19013KT 24/17 A3015 RMK A01 T02430166  RH  064%=      5-min Rain = 0
KSLS 111345Z 19014KT 24/17 A3015 RMK A01 T02440166  RH  063%=      5-min Rain = 0
KSLS 111350Z 19016KT 24/17 A3016 RMK A01 T02430165  RH  063%=      5-min Rain = 0
KSLS 111355Z 19016KT 24/17 A3016 RMK A01 T02410165  RH  064%=      5-min Rain = 0
KSLS 111400Z 20013KT 25/17 A3016 RMK A01 T02450168  RH  064%=      5-min Rain = 0
KSLS 111405Z 20016KT 25/17 A3016 RMK A01 T02480168  RH  063%=      5-min Rain = 0
KSLS 111410Z 19015KT 25/17 A3016 RMK A01 T02490169  RH  062%=      5-min Rain = 0
KSLS 111415Z 19017KT 25/17 A3016 RMK A01 T02520169  RH  061%=      5-min Rain = 0
KSLS 111420Z 19016KT 25/17 A3016 RMK A01 T02540170  RH  061%=      5-min Rain = 0
KSLS 111425Z 19017KT 26/17 A3016 RMK A01 T02560168  RH  060%=      5-min Rain = 0
KSLS 111430Z 20016KT 26/17 A3016 RMK A01 T02580169  RH  059%=      5-min Rain = 0
KSLS 111435Z 20015KT 26/17 A3016 RMK A01 T02590169  RH  059%=      5-min Rain = 0
KSLS 111440Z 20014KT 26/17 A3016 RMK A01 T02570170  RH  060%=      5-min Rain = 0
KSLS 111445Z 19016KT 26/17 A3016 RMK A01 T02590168  RH  059%=      5-min Rain = 0
KSLS 111450Z 19014KT 26/17 A3016 RMK A01 T02620170  RH  058%=      5-min Rain = 0
KSLS 111455Z 20014KT 27/17 A3016 RMK A01 T02650170  RH  057%=      5-min Rain = 0
KSLS 111500Z 18014KT 27/17 A3016 RMK A01 T02670170  RH  057%=      5-min Rain = 0
KSLS 111505Z 19014KT 27/17 A3016 RMK A01 T02670170  RH  057%=      5-min Rain = 0
KSLS 111510Z 18012G17KT 27/17 A3016 RMK A01 T02700170  RH  055%=      5-min Rain = 0
KSLS 111515Z 18013KT 27/17 A3016 RMK A01 T02720168  RH  054%=      5-min Rain = 0
KSLS 111520Z 19013KT 27/17 A3016 RMK A01 T02720168  RH  054%=      5-min Rain = 0
KSLS 111525Z 19013G19KT 27/17 A3016 RMK A01 T02740168  RH  054%=      5-min Rain = 0
KSLS 111530Z 19012KT 27/17 A3016 RMK A01 T02730168  RH  054%=      5-min Rain = 0
KSLS 111535Z 19010KT 27/17 A3016 RMK A01 T02730168  RH  054%=      5-min Rain = 0
KSLS 111540Z 19010KT 27/17 A3016 RMK A01 T02700169  RH  055%=      5-min Rain = 0
KSLS 111545Z 19011G16KT 27/17 A3016 RMK A01 T02740170  RH  054%=      5-min Rain = 0
KSLS 111550Z 19012KT 28/17 A3016 RMK A01 T02760169  RH  053%=      5-min Rain = 0
KSLS 111555Z 18011KT 28/17 A3016 RMK A01 T02780168  RH  052%=      5-min Rain = 0
KSLS 111600Z 19011KT 28/17 A3016 RMK A01 T02820168  RH  051%=      5-min Rain = 0
KSLS 111605Z 20011G16KT 29/17 A3016 RMK A01 T02850168  RH  050%=      5-min Rain = 0
KSLS 111610Z 19013KT 28/17 A3016 RMK A01 T02840165  RH  050%=      5-min Rain = 0
KSLS 111615Z 18010KT 29/17 A3016 RMK A01 T02850167  RH  050%=      5-min Rain = 0
KSLS 111620Z 19012KT 29/16 A3015 RMK A01 T02880164  RH  048%=      5-min Rain = 0
KSLS 111625Z 19011G16KT 28/16 A3015 RMK A01 T02840163  RH  049%=      5-min Rain = 0
KSLS 111630Z 19012KT 28/16 A3015 RMK A01 T02830158  RH  048%=      5-min Rain = 0
KSLS 111635Z 19012KT 28/16 A3015 RMK A01 T02830156  RH  047%=      5-min Rain = 0
KSLS 111640Z 20012KT 28/15 A3015 RMK A01 T02810151  RH  046%=      5-min Rain = 0
KSLS 111645Z 19011KT 28/16 A3015 RMK A01 T02800155  RH  047%=      5-min Rain = 0
KSLS 111650Z 19010KT 28/16 A3015 RMK A01 T02840161  RH  048%=      5-min Rain = 0
KSLS 111655Z 20010G16KT 29/16 A3015 RMK A01 T02890159  RH  046%=      5-min Rain = 0
KSLS 111700Z 18010KT 29/16 A3015 RMK A01 T02940156  RH  044%=      5-min Rain = 0
KSLS 111705Z 17012KT 30/15 A3015 RMK A01 T02960148  RH  041%=      5-min Rain = 0
KSLS 111710Z 17014KT 30/15 A3015 RMK A01 T02960146  RH  041%=      5-min Rain = 0
KSLS 111715Z 17010G15KT 30/15 A3015 RMK A01 T03030152  RH  041%=      5-min Rain = 0
KSLS 111720Z 16013G18KT 31/14 A3015 RMK A01 T03070144  RH  038%=      5-min Rain = 0
KSLS 111725Z 17012KT 31/14 A3015 RMK A01 T03100136  RH  035%=      5-min Rain = 0
KSLS 111730Z 17015G21KT 31/13 A3014 RMK A01 T03130131  RH  034%=      5-min Rain = 0
KSLS 111735Z 18014G20KT 31/13 A3014 RMK A01 T03120130  RH  034%=      5-min Rain = 0
KSLS 111740Z 18014G19KT 31/14 A3014 RMK A01 T03140135  RH  034%=      5-min Rain = 0
KSLS 111745Z 16014G20KT 31/13 A3014 RMK A01 T03090130  RH  034%=      5-min Rain = 0
KSLS 111750Z 16013G18KT 31/13 A3014 RMK A01 T03050132  RH  036%=      5-min Rain = 0
KSLS 111755Z 16013KT 31/13 A3013 RMK A01 T03090133  RH  035%=      5-min Rain = 0
KSLS 111800Z 16013KT 31/13 A3013 RMK A01 T03070129  RH  034%=      5-min Rain = 0
KSLS 111805Z 17011KT 31/13 A3013 RMK A01 T03110131  RH  034%=      5-min Rain = 0
KSLS 111810Z 18017G24KT 31/13 A3013 RMK A01 T03130129  RH  033%=      5-min Rain = 0
KSLS 111815Z 17016G22KT 32/13 A3012 RMK A01 T03150129  RH  033%=      5-min Rain = 0
KSLS 111820Z 18016KT 31/13 A3012 RMK A01 T03130129  RH  033%=      5-min Rain = 0
KSLS 111825Z 15014G22KT 32/13 A3012 RMK A01 T03150134  RH  034%=      5-min Rain = 0
KSLS 111830Z 16016G22KT 31/13 A3012 RMK A01 T03140132  RH  034%=      5-min Rain = 0
KSLS 111835Z 16014G19KT 31/13 A3012 RMK A01 T03100129  RH  034%=      5-min Rain = 0
KSLS 111840Z 17016G22KT 31/13 A3012 RMK A01 T03100126  RH  033%=      5-min Rain = 0
KSLS 111845Z 17015G21KT 32/13 A3011 RMK A01 T03160130  RH  033%=      5-min Rain = 0
KSLS 111850Z 18015G22KT 32/13 A3011 RMK A01 T03240129  RH  031%=      5-min Rain = 0
KSLS 111855Z 17016G23KT 32/13 A3011 RMK A01 T03240127  RH  031%=      5-min Rain = 0
KSLS 111900Z 18016G21KT 32/12 A3011 RMK A01 T03230122  RH  030%=      5-min Rain = 0
KSLS 111905Z 18015G21KT 32/12 A3011 RMK A01 T03230119  RH  029%=      5-min Rain = 0
KSLS 111910Z 15015G20KT 33/12 A301 RMK A01 T03250119  RH  029%=      5-min Rain = 0
KSLS 111915Z 17017G24KT 32/12 A301 RMK A01 T03240119  RH  029%=      5-min Rain = 0
KSLS 111920Z 17016G22KT 33/12 A301 RMK A01 T03250115  RH  028%=      5-min Rain = 0
KSLS 111925Z 19017G23KT 33/12 A301 RMK A01 T03250116  RH  028%=      5-min Rain = 0
KSLS 111930Z 18013G20KT 33/12 A301 RMK A01 T03270118  RH  028%=      5-min Rain = 0
KSLS 111935Z 17013G18KT 33/12 A3009 RMK A01 T03290117  RH  028%=      5-min Rain = 0
KSLS 111940Z 17016G23KT 33/12 A3009 RMK A01 T03290116  RH  028%=      5-min Rain = 0
KSLS 111945Z 18015G22KT 33/12 A3009 RMK A01 T03300116  RH  028%=      5-min Rain = 0
KSLS 111950Z 16015G20KT 33/11 A3009 RMK A01 T03300114  RH  027%=      5-min Rain = 0
KSLS 111955Z 17017G24KT 33/11 A3008 RMK A01 T03270114  RH  028%=      5-min Rain = 0
KSLS 112000Z 19015G21KT 33/12 A3008 RMK A01 T03290116  RH  028%=      5-min Rain = 0
KSLS 112005Z 19017G22KT 33/11 A3008 RMK A01 T03290114  RH  027%=      5-min Rain = 0
KSLS 112010Z 17015G22KT 33/11 A3008 RMK A01 T03260112  RH  028%=      5-min Rain = 0
KSLS 112015Z 16012G19KT 32/11 A3008 RMK A01 T03240112  RH  028%=      5-min Rain = 0
KSLS 112020Z 16016G21KT 33/11 A3007 RMK A01 T03280112  RH  027%=      5-min Rain = 0
KSLS 112025Z 17011G18KT 33/11 A3007 RMK A01 T03320110  RH  026%=      5-min Rain = 0
KSLS 112030Z 17016G22KT 33/11 A3007 RMK A01 T03310109  RH  026%=      5-min Rain = 0
KSLS 112035Z 18015G20KT 34/11 A3007 RMK A01 T03350110  RH  026%=      5-min Rain = 0
KSLS 112040Z 17013G18KT 34/11 A3007 RMK A01 T03360107  RH  025%=      5-min Rain = 0
KSLS 112045Z 16013KT 34/11 A3006 RMK A01 T03350107  RH  025%=      5-min Rain = 0
KSLS 112050Z 19015G22KT 34/11 A3006 RMK A01 T03350107  RH  025%=      5-min Rain = 0
KSLS 112055Z 19014G21KT 34/11 A3006 RMK A01 T03360108  RH  025%=      5-min Rain = 0
KSLS 112100Z 18017G22KT 34/11 A3005 RMK A01 T03360109  RH  026%=      5-min Rain = 0
KSLS 112105Z 19016G25KT 34/11 A3005 RMK A01 T03360113  RH  026%=      5-min Rain = 0
KSLS 112110Z 19015G21KT 34/12 A3005 RMK A01 T03360115  RH  027%=      5-min Rain = 0
KSLS 112115Z 16011G17KT 33/11 A3005 RMK A01 T03300113  RH  027%=      5-min Rain = 0
KSLS 112120Z 17015G20KT 33/12 A3005 RMK A01 T03250116  RH  028%=      5-min Rain = 0
KSLS 112125Z 16015G22KT 33/12 A3004 RMK A01 T03270117  RH  028%=      5-min Rain = 0
KSLS 112130Z 15012KT 33/12 A3004 RMK A01 T03280117  RH  028%=      5-min Rain = 0
KSLS 112135Z 14014G20KT 33/11 A3004 RMK A01 T03280114  RH  028%=      5-min Rain = 0
KSLS 112140Z 15014G20KT 33/12 A3004 RMK A01 T03260116  RH  028%=      5-min Rain = 0
KSLS 112145Z 15016G21KT 33/12 A3004 RMK A01 T03280118  RH  028%=      5-min Rain = 0
KSLS 112150Z 16012KT 33/12 A3004 RMK A01 T03330117  RH  027%=      5-min Rain = 0
KSLS 112155Z 17013KT 33/12 A3003 RMK A01 T03330115  RH  027%=      5-min Rain = 0
KSLS 112200Z 17014KT 33/12 A3003 RMK A01 T03330115  RH  027%=      5-min Rain = 0
KSLS 112205Z 17013G19KT 34/12 A3003 RMK A01 T03380118  RH  027%=      5-min Rain = 0
KSLS 112210Z 15015G21KT 34/11 A3003 RMK A01 T03380114  RH  026%=      5-min Rain = 0
KSLS 112215Z 15014KT 33/12 A3003 RMK A01 T03340115  RH  027%=      5-min Rain = 0
KSLS 112220Z 16014G24KT 33/11 A3003 RMK A01 T03320114  RH  027%=      5-min Rain = 0
KSLS 112225Z 16013G20KT 33/12 A3002 RMK A01 T03320115  RH  027%=      5-min Rain = 0
KSLS 112230Z 14014KT 33/11 A3002 RMK A01 T03320112  RH  027%=      5-min Rain = 0
KSLS 112235Z 16011KT 34/11 A3002 RMK A01 T03380114  RH  026%=      5-min Rain = 0
KSLS 112240Z 16014G20KT 34/11 A3002 RMK A01 T03380114  RH  026%=      5-min Rain = 0
KSLS 112245Z 16014G21KT 34/11 A3002 RMK A01 T03360113  RH  026%=      5-min Rain = 0
KSLS 112250Z 18011KT 34/12 A3002 RMK A01 T03360115  RH  027%=      5-min Rain = 0
KSLS 112255Z 18013G19KT 34/12 A3002 RMK A01 T03380116  RH  026%=      5-min Rain = 0
KSLS 112300Z 17013KT 34/11 A3002 RMK A01 T03390112  RH  026%=      5-min Rain = 0
KSLS 112305Z 15015KT 34/11 A3002 RMK A01 T03380113  RH  026%=      5-min Rain = 0
KSLS 112310Z 15014G20KT 34/11 A3002 RMK A01 T03350114  RH  026%=      5-min Rain = 0
KSLS 112315Z 16014G19KT 34/12 A3002 RMK A01 T03350115  RH  027%=      5-min Rain = 0
KSLS 112320Z 15013G24KT 33/12 A3002 RMK A01 T03320115  RH  027%=      5-min Rain = 0
KSLS 112325Z 15017KT 34/12 A3002 RMK A01 T03350117  RH  027%=      5-min Rain = 0
KSLS 112330Z 15012KT 34/12 A3002 RMK A01 T03350119  RH  027%=      5-min Rain = 0
KSLS 112335Z 14016KT 34/12 A3002 RMK A01 T03350116  RH  027%=      5-min Rain = 0
KSLS 112340Z 16013G19KT 33/12 A3002 RMK A01 T03340115  RH  027%=      5-min Rain = 0
KSLS 112345Z 18015G21KT 33/11 A3002 RMK A01 T03310114  RH  027%=      5-min Rain = 0
KSLS 112350Z 17017KT 33/12 A3002 RMK A01 T03300115  RH  027%=      5-min Rain = 0
KSLS 112355Z 15016KT 33/12 A3002 RMK A01 T03300115  RH  027%=      5-min Rain = 0
KSLS 120000Z 15013G20KT 33/12 A3002 RMK A01 T03300117  RH  028%=      5-min Rain = 0
KSLS 120005Z 17013G19KT 33/11 A3002 RMK A01 T03290113  RH  027%=      5-min Rain = 0
KSLS 120010Z 15016KT 33/11 A3002 RMK A01 T03250113  RH  028%=      5-min Rain = 0
KSLS 120015Z 15016KT 33/11 A3002 RMK A01 T03270114  RH  028%=      5-min Rain = 0
KSLS 120020Z 15015KT 32/12 A3002 RMK A01 T03240115  RH  028%=      5-min Rain = 0
KSLS 120025Z 15015KT 32/11 A3002 RMK A01 T03190113  RH  029%=      5-min Rain = 0
KSLS 120030Z 16013G18KT 32/11 A3002 RMK A01 T03180113  RH  029%=      5-min Rain = 0
KSLS 120035Z 16013KT 32/11 A3002 RMK A01 T03190114  RH  029%=      5-min Rain = 0
KSLS 120040Z 15014KT 32/12 A3002 RMK A01 T03180117  RH  030%=      5-min Rain = 0
KSLS 120045Z 15012KT 32/12 A3002 RMK A01 T03150118  RH  030%=      5-min Rain = 0
KSLS 120050Z 15013KT 31/12 A3003 RMK A01 T03130119  RH  031%=      5-min Rain = 0
KSLS 120055Z 15013KT 31/12 A3003 RMK A01 T03120119  RH  031%=      5-min Rain = 0
KSLS 120100Z 15013KT 31/12 A3003 RMK A01 T03100119  RH  032%=      5-min Rain = 0
KSLS 120105Z 15012KT 31/12 A3003 RMK A01 T03090120  RH  032%=      5-min Rain = 0
KSLS 120110Z 15011KT 31/12 A3003 RMK A01 T03070121  RH  032%=      5-min Rain = 0
KSLS 120115Z 15011KT 31/12 A3003 RMK A01 T03050121  RH  033%=      5-min Rain = 0
KSLS 120120Z 15011KT 30/12 A3003 RMK A01 T03040122  RH  033%=      5-min Rain = 0
KSLS 120125Z 15011KT 30/12 A3003 RMK A01 T03020123  RH  034%=      5-min Rain = 0
KSLS 120130Z 15011KT 30/12 A3003 RMK A01 T03010123  RH  034%=      5-min Rain = 0
KSLS 120135Z 15010KT 30/12 A3003 RMK A01 T03000124  RH  035%=      5-min Rain = 0
KSLS 120140Z 15009KT 30/12 A3003 RMK A01 T02980124  RH  035%=      5-min Rain = 0
KSLS 120145Z 15010KT 30/13 A3004 RMK A01 T02970125  RH  035%=      5-min Rain = 0
KSLS 120150Z 16009KT 30/13 A3004 RMK A01 T02960126  RH  036%=      5-min Rain = 0
KSLS 120155Z 18008KT 30/13 A3004 RMK A01 T02960126  RH  036%=      5-min Rain = 0
KSLS 120200Z 18008KT 29/13 A3004 RMK A01 T02930126  RH  036%=      5-min Rain = 0
KSLS 120205Z 17008KT 29/13 A3004 RMK A01 T02930126  RH  036%=      5-min Rain = 0
KSLS 120210Z 16008KT 29/13 A3004 RMK A01 T02920129  RH  037%=      5-min Rain = 0
KSLS 120215Z 16009KT 29/13 A3004 RMK A01 T02930125  RH  036%=      5-min Rain = 0
KSLS 120220Z 17008KT 29/13 A3004 RMK A01 T02930126  RH  037%=      5-min Rain = 0
KSLS 120225Z 16007KT 29/13 A3005 RMK A01 T02900131  RH  038%=      5-min Rain = 0
KSLS 120230Z 16007KT 29/13 A3005 RMK A01 T02880134  RH  040%=      5-min Rain = 0
KSLS 120235Z 15007KT 29/14 A3005 RMK A01 T02850135  RH  040%=      5-min Rain = 0
KSLS 120240Z 15007KT 28/14 A3005 RMK A01 T02840135  RH  041%=      5-min Rain = 0
KSLS 120245Z 15009KT 29/13 A3005 RMK A01 T02850132  RH  040%=      5-min Rain = 0
KSLS 120250Z 14010KT 29/13 A3006 RMK A01 T02880128  RH  038%=      5-min Rain = 0
KSLS 120255Z 14010KT 29/12 A3006 RMK A01 T02910124  RH  036%=      5-min Rain = 0
KSLS 120300Z 15010KT 29/12 A3006 RMK A01 T02920123  RH  036%=      5-min Rain = 0
KSLS 120305Z 15009KT 29/12 A3006 RMK A01 T02920124  RH  036%=      5-min Rain = 0
KSLS 120310Z 15009KT 29/12 A3007 RMK A01 T02920124  RH  036%=      5-min Rain = 0
KSLS 120315Z 15009KT 29/12 A3007 RMK A01 T02920124  RH  036%=      5-min Rain = 0
KSLS 120320Z 14010KT 29/12 A3007 RMK A01 T02920123  RH  036%=      5-min Rain = 0
KSLS 120325Z 15009KT 29/12 A3007 RMK A01 T02920123  RH  036%=      5-min Rain = 0
KSLS 120330Z 15010KT 29/12 A3008 RMK A01 T02920123  RH  036%=      5-min Rain = 0
KSLS 120335Z 15009KT 29/12 A3008 RMK A01 T02910124  RH  036%=      5-min Rain = 0
KSLS 120340Z 15009KT 29/13 A3008 RMK A01 T02890127  RH  037%=      5-min Rain = 0
KSLS 120345Z 15009KT 29/13 A3008 RMK A01 T02880128  RH  038%=      5-min Rain = 0
KSLS 120350Z 16010KT 29/13 A3009 RMK A01 T02870129  RH  038%=      5-min Rain = 0
KSLS 120355Z 16009KT 29/13 A3009 RMK A01 T02860130  RH  039%=      5-min Rain = 0
KSLS 120400Z 16010KT 29/13 A3009 RMK A01 T02850129  RH  039%=      5-min Rain = 0
KSLS 120405Z 16010KT 29/13 A3009 RMK A01 T02850129  RH  039%=      5-min Rain = 0
KSLS 120410Z 20010G15KT 28/13 A3009 RMK A01 T02830133  RH  040%=      5-min Rain = 0
KSLS 120415Z 20010KT 28/14 A3009 RMK A01 T02770139  RH  043%=      5-min Rain = 0
KSLS 120420Z 19010KT 28/14 A3009 RMK A01 T02750140  RH  044%=      5-min Rain = 0
KSLS 120425Z 20012KT 27/14 A3009 RMK A01 T02740141  RH  045%=      5-min Rain = 0
KSLS 120430Z 20011KT 27/14 A3009 RMK A01 T02720143  RH  046%=      5-min Rain = 0
KSLS 120435Z 20010KT 27/15 A3009 RMK A01 T02690146  RH  048%=      5-min Rain = 0
KSLS 120440Z 20009KT 27/15 A3009 RMK A01 T02670146  RH  048%=      5-min Rain = 0
KSLS 120445Z 20008KT 27/15 A3009 RMK A01 T02650147  RH  049%=      5-min Rain = 0
KSLS 120450Z 21007KT 26/15 A3009 RMK A01 T02640148  RH  050%=      5-min Rain = 0
KSLS 120455Z 20007KT 27/15 A301 RMK A01 T02650148  RH  050%=      5-min Rain = 0
KSLS 120500Z 20007KT 26/15 A301 RMK A01 T02630150  RH  051%=      5-min Rain = 0

Page generated in 0.0094 seconds.